Historyczne dane pomiarowe

Dodano dane terminowe – wersja testowa.

Dane z okresu 1951-2019

Wersja bazy: 1.34 [2019-03-16, lista zmian], aktualizacja planowana na 2019-04-15

Dane meteo z obszaru Polski uzyskane na podstawie danych udostępnionych przez Instytut Meteorologii i Gospodarki Wodnej – Państwowy Instytut Badawczy.

 

Wybierz Datę:    

       

TemperaturaWilgotnośćWiatrCiśnienieOpadyŚniegCzas trwania zjawisk
 Stacja t tx tn tng RH VA  wxwx mslp ppp RRR   cm mm wxwxwxwxwxwxwx
1999-08-14 12.1 18.1 5.6- 92.3- 4.0 0.3---- 0.0------------
1999-08-13 13.5 18.1 10.6- 96.0- 5.7 0.3---- 0.0------------
1999-08-12 14.5 19.1 12.2- 98.0- 6.0 0.7---- 0.0------------
1999-08-11 18.2 23.1 14.8- 93.0- 4.3 0.7---- 14.8------------
1999-08-10 20.0 29.2 14.6- 93.5- 5.0 1.3---- 29.0------------
1999-08-09 20.0 30.7 13.5- 90.5- 2.3 0.3---- 5.1------------
1999-08-08 20.5 27.7 15.0- 92.5- 4.0 1.0---- 0.0------------
1999-08-07 20.0 28.7 11.5- 92.3- 4.0 0.3---- 24.7------------
1999-08-06 20.1 25.6 14.0- 95.5- 4.7 1.0---- 1.5------------
1999-08-05 15.6 25.6 7.6- 95.8- 2.0 0.0---- 0.0------------
1999-08-04 14.5 22.6 6.8- 96.0- 2.7 0.7---- 0.0------------
1999-08-03 13.9 20.6 8.5- 94.3- 5.7 0.0---- 0.0------------
1999-08-02 13.7 18.6 8.0- 96.0- 4.0 0.7---- 0.5------------
1999-08-01 15.3 21.6 11.0- 96.3- 4.7 0.7---- 0.8------------
1999-07-31 14.7 22.1 7.0- 96.8- 4.0 0.7---- 0.0------------
1999-07-30 14.5 22.1 6.5- 96.0- 2.3 1.0---- 0.0------------
1999-07-29 15.9 21.1 11.5- 94.8- 4.0 1.0---- 0.0------------
1999-07-28 18.1 22.6 14.5- 93.0- 5.0 0.7---- 0.0------------
1999-07-27 17.9 21.6 15.9- 99.0- 8.0 0.7---- 0.3------------
1999-07-26 17.4 25.1 10.7- 95.5- 3.3 0.7---- 0.6------------
1999-07-25 16.5 23.1 9.5- 96.8- 1.7 1.3---- 0.0------------
1999-07-24 14.0 19.1 11.0- 95.3- 5.3 0.3---- 0.0------------
1999-07-23 14.3 20.1 12.0- 99.0- 7.3 0.7---- 12.2------------
1999-07-22 20.2 28.2 14.0- 91.3- 2.7 1.3---- 10.0------------
1999-07-21 20.7 28.2 13.6- 89.5- 2.0 1.7---- 0.0------------
1999-07-20 18.6 27.2 11.0- 86.8- 0.7 1.0---- 0.0------------
1999-07-19 18.0 26.7 8.2- 94.5- 0.3 1.0---- 0.0------------
1999-07-18 16.5 23.7 8.2- 90.3- 0.7 0.3---- 0.0------------
1999-07-17 15.4 21.6 9.5- 96.3- 1.7 0.7---- 0.0------------
1999-07-16 14.9 20.6 9.5- 92.3- 4.0 1.0---- 0.0------------
1999-07-15 16.1 20.6 14.0- 95.3- 5.3 1.3---- 0.0------------
1999-07-14 19.3 25.6 15.4- 96.0- 4.7 1.0---- 4.8------------
1999-07-13 19.7 25.6 13.5- 97.3- 4.3 0.7---- 2.3------------
1999-07-12 17.3 20.9 13.0- 95.5- 3.3 0.7---- 2.2------------
1999-07-11 18.4 20.9 15.4- 96.0- 6.0 1.3---- 12.9------------
1999-07-10 17.5 20.1 15.1- 96.0- 6.0 2.0---- 0.0------------
1999-07-09 17.2 21.3 15.1- 98.0- 6.7 1.7---- 0.3------------
1999-07-08 18.0 21.1 16.5- 97.8- 6.0 1.3---- 5.3------------
1999-07-07 20.8 25.6 17.4- 96.5- 4.0 1.0---- 23.8------------
1999-07-06 22.2 31.7 13.5- 93.5- 0.7 1.3---- 0.0------------
1999-07-05 20.9 30.7 14.0- 87.0- 0.7 0.7---- 0.0------------
1999-07-04 19.9 30.2 11.0- 81.3- 0.7 0.7---- 0.0------------
1999-07-03 17.8 24.6 11.5- 94.5- 2.7 0.3---- 0.0------------
1999-07-02 17.9 23.6 14.0- 96.3- 3.3 1.3---- 0.0------------
1999-07-01 17.7 24.1 11.0- 94.8- 4.0 1.0---- 0.1------------
1999-06-30 18.5 25.1 12.2- 94.0- 2.0 1.0---- 0.0------------
1999-06-29 18.2 24.1 13.0- 93.3- 3.3 0.7---- 0.0------------
1999-06-28 17.5 26.7 10.2- 91.8- 3.7 0.0---- 2.2------------
1999-06-27 18.8 27.2 8.2- 89.0- 1.0 1.0---- 0.0------------
1999-06-26 15.6 23.7 4.5- 92.5- 2.7 1.0---- 0.0------------
1999-06-25 11.1 18.1 2.5- 80.8- 2.7 1.0---- 0.0------------
1999-06-24 8.8 12.1 7.0- 96.3- 6.7 0.3---- 0.1------------
1999-06-23 7.8 9.5 6.2- 98.3- 8.0 0.7---- 2.5------------
1999-06-22 9.8 16.1 7.0- 99.0- 8.0 2.3---- 19.9------------
1999-06-21 17.2 22.7 14.2- 99.0- 4.7 1.0---- 23.5------------
1999-06-20 17.0 22.6 14.0- 98.5- 7.0 0.0---- 1.6------------
1999-06-19 15.3 19.1 13.0- 96.5- 8.0 1.0---- 0.4------------
1999-06-18 16.7 19.6 15.0- 98.5- 8.0 0.0---- 13.1------------
1999-06-17 17.6 21.1 15.0- 97.3- 8.0 1.3---- 11.4------------
1999-06-16 16.7 19.6 14.2- 95.8- 8.0 0.7---- 1.0------------
351.5 ms

 

Źródłem pochodzenia danych jest Instytut Meteorologii i Gospodarki Wodnej – Państwowy Instytut Badawczy. Dane Instytutu Meteorologii i Gospodarki Wodnej – Państwowego Instytutu Badawczego zostały przetworzone.

Dane źródłowe można odnaleźć na stronie https://dane.imgw.pl